सभी
Bunyip Airport YBUP मौसम
There is no TAF data available at YBUP or any nearby airports.
There is no METAR data available at YBUP. Showing METAR data for YCEM (27 mi W).
Recent YCEM METAR history (no data for YBUP)
| Date | Time (AEST) | Flight Rules | Wind Dir. | Speed | Type | Height AGL (ft) | Visibility | Temp (°C) | Temp (°F) | Dew Point (°C) | Dew Point (°F) | Rel. Humid. | Pressure | Density Altitude | Remarks |
|---|---|---|---|---|---|---|---|---|---|---|---|---|---|---|---|
| 05-मई | 16:00 | n/a | 350° | 3 kt | Missing | 15° | 59° | 7° | 44° | 59% | 1021 mb | 103 ft | |||
| 05-मई | 15:00 | n/a | 320° | 4 kt | Missing | 15° | 59° | 7° | 44° | 59% | 1020 mb | 132 ft | |||
| 05-मई | 14:00 | n/a | 290° | 6 kt | Missing | 15° | 59° | 7° | 44° | 59% | 1020 mb | 132 ft | |||
| 05-मई | 13:00 | n/a | 250° | 9 kt | Missing | 15° | 59° | 8° | 46° | 63% | 1020 mb | 132 ft | |||
| 05-मई | 12:00 | n/a | 270° | 8 kt | Missing | 15° | 59° | 8° | 46° | 63% | 1020 mb | 132 ft | |||
| 05-मई | 11:00 | n/a | 270° | 9 kt | Missing | 14° | 57° | 8° | 46° | 67% | 1020 mb | 12 ft | |||
| 05-मई | 10:00 | n/a | 260° | 4 kt | Missing | 14° | 57° | 10° | 50° | 77% | 1020 mb | 12 ft | |||
| 05-मई | 09:00 | n/a | 340° | 4 kt | Missing | 13° | 55° | 11° | 51° | 88% | 1020 mb | -108 ft | |||
| 05-मई | 08:00 | n/a | 330° | 5 kt | Missing | 13° | 55° | 11° | 51° | 88% | 1019 mb | -78 ft | |||
| 05-मई | 07:00 | n/a | 10° | 1 kt | Missing | 12° | 53° | 11° | 51° | 94% | 1018 mb | -169 ft | |||
| 05-मई | 06:00 | n/a | 290° | 8 kt | Missing | 12° | 53° | 10° | 50° | 88% | 1017 mb | -139 ft | |||
| 05-मई | 05:00 | n/a | 310° | 5 kt | Missing | 13° | 55° | 9° | 48° | 77% | 1016 mb | 11 ft | |||
| 05-मई | 04:00 | n/a | 310° | 7 kt | Missing | 14° | 57° | 9° | 48° | 72% | 1015 mb | 160 ft | |||
| 05-मई | 03:00 | n/a | 320° | 6 kt | Missing | 14° | 57° | 9° | 48° | 72% | 1015 mb | 160 ft | |||
| 05-मई | 02:00 | n/a | 350° | 5 kt | Missing | 14° | 57° | 10° | 50° | 77% | 1015 mb | 160 ft | |||
| 05-मई | 01:00 | n/a | 320° | 6 kt | Missing | 14° | 57° | 10° | 50° | 77% | 1014 mb | 190 ft | |||
| 05-मई | 00:00 | n/a | 360° | 4 kt | Missing | 14° | 57° | 10° | 50° | 77% | 1014 mb | 190 ft | |||
| 04-मई | 23:00 | n/a | 10° | 4 kt | Missing | 14° | 57° | 11° | 51° | 82% | 1014 mb | 190 ft | |||
| 04-मई | 22:00 | n/a | 350° | 7 kt | Missing | 14° | 57° | 11° | 51° | 82% | 1013 mb | 219 ft | |||
| 04-मई | 21:00 | n/a | 10° | 7 kt | Missing | 14° | 57° | 11° | 51° | 82% | 1013 mb | 219 ft | |||
| 04-मई | 20:00 | n/a | 10° | 7 kt | Missing | 13° | 55° | 12° | 53° | 94% | 1012 mb | 129 ft | |||
| 04-मई | 19:00 | n/a | 360° | 9 kt | Missing | 14° | 57° | 11° | 51° | 82% | 1012 mb | 249 ft | |||
| 04-मई | 18:00 | n/a | 10° | 9 kt | Missing | 14° | 57° | 10° | 50° | 77% | 1011 mb | 278 ft | |||
| 04-मई | 17:00 | n/a | 10° | 10 kt | Missing | 16° | 60° | 9° | 48° | 63% | 1010 mb | 548 ft | Wind gusting to 20 KT |
लॉगिन
| Your browser is unsupported. अपना ब्राऊजर अपग्रेड करें |
